Time;durP1;ratioP1;P1;durP2;ratioP2;P2;SDS_P1;SDS_P2;PMS_P1;PMS_P2;Temp;Humidity;BMP_temperature;BMP_pressure;BME280_temperature;BME280_humidity;BME280_pressure;Samples;Min_cycle;Max_cycle;Signal;HPM_P1;HPM_P2
2022/08/27 00:09:45;;;;;;;0.80;0.50;;;;;;;19.60;100.00;101400.97;20714916;28;20498;-77
2022/08/27 00:19:46;;;;;;;0.85;0.65;;;;;;;19.63;100.00;101395.28;20722141;28;20072;-75
2022/08/27 00:29:48;;;;;;;1.00;0.60;;;;;;;19.63;100.00;101392.59;20703019;28;20077;-74
2022/08/27 00:39:50;;;;;;;1.92;0.80;;;;;;;19.50;100.00;101365.81;20722058;28;20042;-75
2022/08/27 00:49:59;;;;;;;1.75;0.85;;;;;;;19.46;100.00;101367.94;20724833;28;20049;-75
2022/08/27 01:00:07;;;;;;;1.15;0.82;;;;;;;19.42;100.00;101355.66;20708452;28;20045;-75
2022/08/27 01:10:15;;;;;;;1.65;0.90;;;;;;;19.50;100.00;101372.06;20713301;28;20508;-75
2022/08/27 01:20:30;;;;;;;2.15;0.80;;;;;;;19.39;100.00;101345.13;20702526;28;20049;-74
2022/08/27 01:30:31;;;;;;;1.27;0.80;;;;;;;19.59;100.00;101383.03;20736573;28;20065;-75
2022/08/27 01:40:33;;;;;;;0.98;0.88;;;;;;;19.59;100.00;101380.34;20716053;28;20054;-75
2022/08/27 01:50:39;;;;;;;1.15;0.70;;;;;;;19.59;100.00;101393.84;20711962;28;20046;-75
2022/08/27 02:00:43;;;;;;;1.17;0.80;;;;;;;19.58;100.00;101386.75;20712071;28;20517;-75
2022/08/27 02:10:47;;;;;;;1.30;0.80;;;;;;;19.52;100.00;101375.50;20735818;28;20056;-75
2022/08/27 02:20:49;;;;;;;1.55;0.88;;;;;;;19.32;100.00;101354.78;20731540;28;20418;-74
2022/08/27 02:30:50;;;;;;;1.58;0.93;;;;;;;18.96;100.00;101291.22;20739602;28;20092;-75
2022/08/27 02:40:52;;;;;;;1.15;0.80;;;;;;;19.54;100.00;101384.31;20734927;28;20061;-74
2022/08/27 02:50:54;;;;;;;1.80;1.00;;;;;;;19.55;100.00;101387.84;20737178;28;20581;-75
2022/08/27 03:00:56;;;;;;;1.27;0.70;;;;;;;19.53;100.00;101379.91;20745920;28;20080;-75
2022/08/27 03:10:58;;;;;;;1.45;0.70;;;;;;;19.53;100.00;101390.69;20724474;28;20115;-75
2022/08/27 03:21:00;;;;;;;1.40;0.80;;;;;;;19.52;100.00;101380.88;20723548;28;20102;-75
2022/08/27 03:31:05;;;;;;;1.15;0.68;;;;;;;19.45;100.00;101370.75;20717442;28;20084;-75
2022/08/27 03:41:06;;;;;;;;;;;;;;;19.51;100.00;101381.88;20725206;28;20068;-74
2022/08/27 03:51:10;;;;;;;1.42;0.80;;;;;;;19.51;100.00;101375.59;20712467;28;20362;-75
2022/08/27 04:01:12;;;;;;;1.47;0.97;;;;;;;19.41;100.00;101353.97;20713293;28;20062;-75
2022/08/27 04:11:14;;;;;;;1.50;0.80;;;;;;;19.43;100.00;101349.28;20720915;28;20046;-75
2022/08/27 04:21:16;;;;;;;1.08;0.75;;;;;;;19.48;100.00;101360.56;20709519;28;20411;-75
2022/08/27 04:31:20;;;;;;;1.35;0.80;;;;;;;19.49;100.00;101364.09;20727071;28;20049;-75
2022/08/27 04:41:23;;;;;;;1.77;0.90;;;;;;;19.48;100.00;101376.75;20720885;28;20046;-75
2022/08/27 04:51:26;;;;;;;0.80;0.70;;;;;;;19.48;100.00;101383.97;20723097;28;20061;-75
2022/08/27 05:01:29;;;;;;;1.55;1.00;;;;;;;19.28;100.00;101352.34;20719488;28;20076;-75
2022/08/27 05:11:33;;;;;;;1.27;0.70;;;;;;;19.46;100.00;101380.56;20771822;28;20063;-74
2022/08/27 05:21:37;;;;;;;0.80;0.77;;;;;;;19.44;100.00;101380.69;20760535;28;20068;-75
2022/08/27 05:31:39;;;;;;;1.63;1.00;;;;;;;19.46;100.00;101385.97;20685755;28;21050;-75
2022/08/27 05:41:41;;;;;;;1.17;0.80;;;;;;;19.45;100.00;101382.44;20686461;28;20053;-75
2022/08/27 05:51:42;;;;;;;2.05;0.70;;;;;;;19.44;100.00;101379.84;20704179;28;20050;-75
2022/08/27 06:01:47;;;;;;;0.95;0.82;;;;;;;19.44;100.00;101383.38;20681917;28;20054;-75
2022/08/27 06:11:48;;;;;;;1.07;0.93;;;;;;;19.38;100.00;101381.22;20714910;28;21871;-75
2022/08/27 06:21:50;;;;;;;2.15;0.90;;;;;;;19.45;100.00;101395.06;20667171;28;20052;-75
2022/08/27 06:32:11;;;;;;;2.70;1.27;;;;;;;19.49;100.00;101410.88;20664554;28;20128;-74
2022/08/27 06:42:13;;;;;;;1.55;0.88;;;;;;;19.52;100.00;101415.13;20657850;28;20125;-74
2022/08/27 06:52:15;;;;;;;1.63;0.85;;;;;;;19.53;100.00;101408.72;20653083;28;20041;-74
2022/08/27 07:02:17;;;;;;;2.70;0.60;;;;;;;19.42;100.00;101399.75;20679982;28;20050;-74
2022/08/27 07:12:20;;;;;;;1.83;0.90;;;;;;;19.59;100.00;101419.00;20692092;28;20157;-74
2022/08/27 07:22:31;;;;;;;1.30;0.75;;;;;;;19.62;100.00;101431.38;20652259;28;20517;-74
2022/08/27 07:32:32;;;;;;;2.67;0.98;;;;;;;19.61;100.00;101425.13;20670191;28;20045;-74
2022/08/27 07:52:53;;;;;;;4.75;1.08;;;;;;;19.76;100.00;101427.47;20674906;28;20532;-74
2022/08/27 08:02:55;;;;;;;3.53;1.50;;;;;;;19.71;100.00;101431.44;20667772;28;20049;-74
2022/08/27 08:12:58;;;;;;;2.90;1.00;;;;;;;19.76;100.00;101430.19;20674312;28;20049;-75
2022/08/27 08:22:59;;;;;;;4.28;1.20;;;;;;;19.75;100.00;101436.56;20654984;28;20094;-74
2022/08/27 08:33:01;;;;;;;2.35;1.10;;;;;;;19.62;100.00;101423.28;20671893;28;20042;-74
2022/08/27 08:43:05;;;;;;;2.58;0.90;;;;;;;19.64;100.00;101418.59;20681946;28;20057;-74
2022/08/27 08:53:39;;;;;;;3.05;1.15;;;;;;;19.86;100.00;101453.50;20688773;28;20124;-75
2022/08/27 09:03:41;;;;;;;3.55;1.33;;;;;;;19.90;100.00;101464.09;20666151;28;20132;-74
2022/08/27 09:13:49;;;;;;;2.20;0.80;;;;;;;19.92;100.00;101464.84;20705211;28;20129;-76
2022/08/27 09:24:07;;;;;;;2.08;0.90;;;;;;;19.92;100.00;101462.97;20697073;28;20049;-76
2022/08/27 09:34:10;;;;;;;3.97;1.48;;;;;;;19.74;100.00;101449.22;20680026;28;20050;-75
2022/08/27 09:44:16;;;;;;;3.83;0.90;;;;;;;19.89;100.00;101467.78;20673673;28;20054;-75
2022/08/27 09:54:39;;;;;;;2.05;0.63;;;;;;;19.89;100.00;101470.47;20754429;28;20048;-75
2022/08/27 10:04:48;;;;;;;3.35;0.80;;;;;;;19.90;100.00;101469.50;20754308;28;20426;-76
2022/08/27 10:14:56;;;;;;;3.45;1.15;;;;;;;19.81;100.00;101463.03;20783073;28;20128;-76
2022/08/27 10:25:20;;;;;;;3.45;0.93;;;;;;;19.90;100.00;101470.34;20781447;28;20046;-75
2022/08/27 10:35:25;;;;;;;1.05;0.60;;;;;;;19.77;100.00;101451.63;20762471;28;20053;-75
2022/08/27 10:45:41;;;;;;;4.40;1.55;;;;;;;19.88;100.00;101480.41;20758924;28;20599;-76
2022/08/27 10:55:50;;;;;;;4.30;1.08;;;;;;;19.93;100.00;101477.34;20779655;28;20045;-76
2022/08/27 11:05:53;;;;;;;1.27;0.60;;;;;;;19.86;99.60;101467.03;20781807;28;20103;-76
2022/08/27 11:15:55;;;;;;;1.88;0.63;;;;;;;19.67;99.05;101445.34;20783424;28;20050;-75
2022/08/27 11:26:00;;;;;;;1.92;0.93;;;;;;;19.92;98.64;101479.19;20797857;28;20054;-75
2022/08/27 11:36:12;;;;;;;2.65;0.80;;;;;;;19.93;98.17;101475.50;20778626;28;20470;-74
2022/08/27 11:46:25;;;;;;;2.53;1.05;;;;;;;19.93;97.91;101477.34;20688765;28;20208;-75
2022/08/27 11:56:29;;;;;;;1.83;0.63;;;;;;;19.94;98.02;101470.97;20681298;28;20069;-75
2022/08/27 12:06:44;;;;;;;1.67;0.77;;;;;;;19.77;97.93;101446.22;20677231;28;20096;-76
2022/08/27 12:16:54;;;;;;;2.00;0.65;;;;;;;19.94;97.81;101465.56;20694418;28;20422;-75
2022/08/27 12:27:12;;;;;;;2.42;0.80;;;;;;;19.95;97.50;101460.00;20689588;28;20050;-75
2022/08/27 12:37:15;;;;;;;3.90;0.70;;;;;;;19.95;97.35;101457.28;20682851;28;20165;-75
2022/08/27 12:47:17;;;;;;;0.85;0.38;;;;;;;19.97;97.31;101459.88;20704414;28;20070;-75
2022/08/27 12:57:40;;;;;;;3.17;0.70;;;;;;;19.96;97.08;101450.06;20699767;28;20087;-75
2022/08/27 13:07:45;;;;;;;1.65;0.65;;;;;;;19.94;97.20;101435.81;20702655;28;20050;-75
2022/08/27 13:17:48;;;;;;;1.83;0.63;;;;;;;19.98;96.84;101442.66;20692669;28;20046;-75
2022/08/27 13:28:14;;;;;;;0.90;0.50;;;;;;;19.98;96.36;101445.38;20686252;28;20069;-75
2022/08/27 13:38:17;;;;;;;1.80;0.90;;;;;;;19.95;96.20;101432.13;20762743;28;20049;-75
2022/08/27 13:48:19;;;;;;;2.80;0.90;;;;;;;19.99;95.85;101453.31;20742789;28;20069;-75
2022/08/27 13:58:33;;;;;;;2.35;0.68;;;;;;;20.00;95.77;101437.97;20741992;28;20112;-75
2022/08/27 14:08:35;;;;;;;2.33;0.60;;;;;;;20.02;95.67;101437.81;20693190;28;20053;-75
2022/08/27 14:18:39;;;;;;;2.50;0.90;;;;;;;20.01;95.22;101442.38;20709306;28;20129;-75
2022/08/27 14:28:59;;;;;;;2.55;0.65;;;;;;;20.02;95.09;101454.91;20741207;28;20050;-75
2022/08/27 14:39:02;;;;;;;1.13;0.47;;;;;;;20.02;94.66;101443.22;20771398;28;20069;-75
2022/08/27 14:49:15;;;;;;;0.85;0.57;;;;;;;20.02;95.29;101448.63;20721083;28;20100;-74
2022/08/27 14:59:16;;;;;;;4.00;0.77;;;;;;;19.99;95.45;101463.28;20741582;28;20060;-75
2022/08/27 15:09:18;;;;;;;2.63;0.82;;;;;;;19.97;95.75;101462.56;20729385;28;20053;-75
2022/08/27 15:19:21;;;;;;;2.28;0.65;;;;;;;19.94;98.50;101473.66;20673395;28;20572;-75
2022/08/27 15:29:24;;;;;;;0.85;0.50;;;;;;;19.93;98.45;101488.16;20680452;28;20439;-75
2022/08/27 15:39:25;;;;;;;1.38;0.70;;;;;;;19.84;98.82;101485.22;20692929;28;20050;-74
2022/08/27 15:49:27;;;;;;;2.10;0.70;;;;;;;19.86;99.41;101488.63;20672329;28;20061;-74
2022/08/27 15:59:28;;;;;;;3.15;0.85;;;;;;;19.84;99.55;101501.44;20725494;28;20478;-75
2022/08/27 16:09:30;;;;;;;2.03;0.50;;;;;;;19.68;99.67;101487.56;20756616;28;20054;-75
2022/08/27 16:19:31;;;;;;;2.10;0.60;;;;;;;19.82;99.81;101510.69;20744245;28;20091;-74
2022/08/27 16:29:33;;;;;;;1.83;0.65;;;;;;;19.81;99.83;101509.81;20756486;28;20191;-75
2022/08/27 16:39:35;;;;;;;1.40;0.50;;;;;;;19.80;99.90;101515.38;20669579;28;20799;-75
2022/08/27 17:00:01;;;;;;;1.70;0.70;;;;;;;19.60;100.00;101492.78;20684386;28;20068;-75
2022/08/27 17:10:03;;;;;;;2.47;0.82;;;;;;;19.76;100.00;101535.53;20717082;28;20054;-74
2022/08/27 17:20:07;;;;;;;1.10;0.50;;;;;;;19.73;100.00;101539.34;20656014;28;20046;-75
2022/08/27 17:30:09;;;;;;;2.33;0.70;;;;;;;19.72;100.00;101540.34;20711131;28;20084;-74
2022/08/27 17:40:11;;;;;;;0.63;0.47;;;;;;;19.71;100.00;101539.50;20733768;28;20124;-75
2022/08/27 17:50:13;;;;;;;3.00;0.88;;;;;;;19.71;100.00;101552.13;20738326;28;20053;-74
2022/08/27 18:00:14;;;;;;;1.13;0.70;;;;;;;19.50;100.00;101520.59;20750495;28;20107;-74
2022/08/27 18:10:22;;;;;;;2.25;1.00;;;;;;;19.70;100.00;101559.41;20688082;28;20054;-74
2022/08/27 18:20:26;;;;;;;1.85;0.82;;;;;;;19.69;99.97;101563.09;20687074;28;20053;-74
2022/08/27 18:30:28;;;;;;;2.88;1.13;;;;;;;19.63;98.91;101560.03;20706727;28;20054;-74
2022/08/27 18:40:34;;;;;;;2.58;1.42;;;;;;;19.69;97.28;101581.13;20698989;28;20069;-74
2022/08/27 18:50:39;;;;;;;3.13;1.42;;;;;;;19.68;96.95;101588.38;20706261;28;20104;-74
2022/08/27 19:00:44;;;;;;;2.77;1.33;;;;;;;19.61;96.66;101580.94;20726187;28;20049;-74
2022/08/27 19:10:45;;;;;;;2.33;1.20;;;;;;;19.66;96.73;101600.28;20712236;28;20111;-74
2022/08/27 19:20:47;;;;;;;2.17;1.30;;;;;;;19.66;96.56;101606.53;20717514;28;20072;-74
2022/08/27 19:30:48;;;;;;;3.20;1.33;;;;;;;19.65;96.81;101614.78;20721290;28;20052;-74
2022/08/27 19:40:50;;;;;;;3.10;1.40;;;;;;;19.63;96.61;101622.16;20716042;28;20041;-74
2022/08/27 19:50:52;;;;;;;3.38;1.60;;;;;;;19.63;96.18;101624.88;20716305;28;20141;-74
2022/08/27 20:00:54;;;;;;;3.03;1.65;;;;;;;19.61;96.07;101619.59;20713311;28;20581;-74
2022/08/27 20:10:55;;;;;;;2.88;1.63;;;;;;;19.39;95.94;101582.75;20712838;28;20176;-74
2022/08/27 20:20:57;;;;;;;2.80;1.50;;;;;;;19.61;96.12;101621.44;20717984;28;20049;-75
2022/08/27 20:31:07;;;;;;;5.00;1.98;;;;;;;19.60;95.74;101625.13;20712093;28;20052;-74
2022/08/27 20:41:08;;;;;;;2.78;2.00;;;;;;;19.60;95.96;101635.94;20713601;28;20096;-73
2022/08/27 20:51:10;;;;;;;3.58;1.63;;;;;;;19.58;95.55;101630.66;20705340;28;20054;-74
2022/08/27 21:01:11;;;;;;;3.03;2.00;;;;;;;19.28;95.34;101584.50;20711978;28;20049;-74
2022/08/27 21:11:14;;;;;;;3.90;1.88;;;;;;;19.56;95.02;101632.63;20717888;28;20050;-74
2022/08/27 21:21:16;;;;;;;3.08;2.10;;;;;;;19.54;95.09;101624.66;20720911;28;20061;-75
2022/08/27 21:31:17;;;;;;;3.72;2.00;;;;;;;19.55;95.00;101628.22;20714398;28;20057;-74
2022/08/27 21:41:19;;;;;;;3.20;2.10;;;;;;;19.55;94.71;101634.47;20713317;28;20058;-74
2022/08/27 21:51:21;;;;;;;2.47;1.80;;;;;;;19.53;94.42;101628.34;20718676;28;20057;-75
2022/08/27 22:01:25;;;;;;;3.50;1.92;;;;;;;19.53;94.62;101633.75;20714626;28;20057;-74
2022/08/27 22:11:26;;;;;;;4.18;2.05;;;;;;;19.52;94.30;101634.75;20709695;28;20069;-74
2022/08/27 22:21:31;;;;;;;3.37;2.20;;;;;;;19.45;93.98;101625.44;20723689;28;20144;-74
2022/08/27 22:31:32;;;;;;;3.38;1.92;;;;;;;19.37;94.17;101611.72;20725498;28;20507;-74
2022/08/27 22:41:34;;;;;;;2.83;2.08;;;;;;;19.50;93.99;101639.41;20733083;28;20049;-74
2022/08/27 22:51:36;;;;;;;3.22;2.00;;;;;;;19.42;93.96;101631.06;20728099;28;20050;-74
2022/08/27 23:01:37;;;;;;;3.25;1.67;;;;;;;19.49;93.85;101643.09;20724397;28;20394;-74
2022/08/27 23:11:40;;;;;;;4.05;2.17;;;;;;;19.45;93.66;101647.06;20723260;28;20046;-74
2022/08/27 23:21:41;;;;;;;3.03;2.00;;;;;;;19.46;93.63;101643.38;20721131;28;20046;-74
2022/08/27 23:31:43;;;;;;;2.75;2.00;;;;;;;19.26;93.37;101616.19;20719451;28;20123;-75
2022/08/27 23:41:44;;;;;;;3.72;1.90;;;;;;;19.42;93.35;101636.47;20717857;28;20058;-75
2022/08/27 23:51:46;;;;;;;2.75;1.60;;;;;;;19.46;93.25;101634.38;20720453;28;20046;-74
